首页
METAR-TAF:

METAR-TAF

机场 :

阿道弗·苏亚雷斯马德里-巴拉哈斯机场

马德里, 西班牙

纬度: 40-27N, 经度: 003-33W, 海拔: 609米

当前天气观测

该预报发布于16分钟前的08:30 UTC
风速7节,风向北转东北,在北转西北东转东北之间变化
温度 24°C
湿度 50%
气压 1019 hPa
能见度10公里或以上
1500米以下无云,无积雨云

METAR: LEMD 140830Z 02007KT 340V070 CAVOK 24/13 Q1019 NOSIG

时间: 10:46 (08:46 UTC)

预报

该预报发布于3小时和46分钟前的05:00 UTC
预报有效从14日的 06点(UTC)到 15日的 12点(UTC)
风速10节,风向北转东北
能见度10公里或以上
1500米以下无云,无积雨云
成为
从 14日的 08点(UTC)到 14日的 10点(UTC)
风速5节,风向多变
成为
从 14日的 19点(UTC)到 14日的 21点(UTC)
风速10节,风向北转东北

TAF: LEMD 140500Z 1406/1512 02010KT CAVOK TX34/1415Z TN18/1406Z BECMG 1408/1410 VRB05KT BECMG 1419/1421 02010KT

超过4000个机场的气象观测和天气预报(METAR&TAF报告)。

可查询的气象台以黄色和红色小点在地图上表示。

将鼠标移到小点上方,可查看气象台名称。

然后点击查看天气观测和预报。

如需切换地图:点击带黑十字的绿色按钮放大地图;点击带横线的绿色按钮缩小地图;或者点击绿色箭头查看邻近地区的地图。


METAR-TAF: